createdAt,value
2022-11-08T00:00:44.801Z,0.00
2022-11-08T00:01:44.856Z,0.00
2022-11-08T00:02:44.861Z,0.00
2022-11-08T00:03:44.720Z,0.00
2022-11-08T00:04:44.727Z,0.00
2022-11-08T00:05:44.704Z,0.00
2022-11-08T00:06:44.673Z,0.00
2022-11-08T00:07:44.658Z,0.00
2022-11-08T00:08:44.633Z,0.00
2022-11-08T00:09:44.621Z,0.00
2022-11-08T00:10:44.639Z,0.00
2022-11-08T00:11:44.607Z,0.00
2022-11-08T00:12:44.594Z,0.00
2022-11-08T00:13:44.554Z,0.00
2022-11-08T00:14:44.578Z,0.00
2022-11-08T00:15:44.566Z,0.00
2022-11-08T00:16:44.755Z,0.00
2022-11-08T00:17:44.508Z,0.00
2022-11-08T00:18:44.511Z,0.00
2022-11-08T00:19:44.484Z,0.00
2022-11-08T00:20:44.466Z,0.00
2022-11-08T00:21:44.474Z,0.00
2022-11-08T00:22:44.483Z,0.00
2022-11-08T00:23:45.536Z,0.00
2022-11-08T00:24:44.399Z,0.00
2022-11-08T00:25:44.407Z,0.00
2022-11-08T00:26:44.418Z,0.00
2022-11-08T00:27:44.386Z,0.00
2022-11-08T00:28:44.367Z,0.00
2022-11-08T00:29:44.321Z,0.00
2022-11-08T00:30:44.391Z,0.00
2022-11-08T00:31:44.304Z,0.00
2022-11-08T00:32:44.304Z,0.00
2022-11-08T00:33:44.371Z,0.00
2022-11-08T00:34:44.281Z,0.00
2022-11-08T00:35:44.271Z,0.00
2022-11-08T00:36:44.259Z,0.00
2022-11-08T00:37:44.235Z,0.00
2022-11-08T00:38:44.207Z,0.00
2022-11-08T00:39:44.194Z,0.00
2022-11-08T00:40:44.194Z,0.00
2022-11-08T00:41:44.215Z,0.00
2022-11-08T00:42:44.168Z,0.00
2022-11-08T00:43:44.142Z,0.00
2022-11-08T00:44:44.131Z,0.00
2022-11-08T00:45:44.174Z,0.00
2022-11-08T00:46:44.127Z,0.00
2022-11-08T00:47:44.075Z,0.00
2022-11-08T00:48:44.070Z,0.00
2022-11-08T00:49:44.030Z,0.00
2022-11-08T00:50:44.039Z,0.00
2022-11-08T00:51:44.049Z,0.00
2022-11-08T00:52:44.014Z,0.00
2022-11-08T00:53:44.071Z,0.00
2022-11-08T00:54:44.016Z,0.00
2022-11-08T00:55:43.946Z,0.00
2022-11-08T00:56:43.986Z,0.00
2022-11-08T00:58:00.554Z,0.00
2022-11-08T00:58:44.980Z,0.00
2022-11-08T00:59:43.957Z,0.00
2022-11-08T01:00:43.929Z,0.00
2022-11-08T01:01:44.012Z,0.00
2022-11-08T01:02:43.872Z,0.00
2022-11-08T01:03:43.859Z,0.00
2022-11-08T01:04:43.853Z,0.00
2022-11-08T01:05:43.811Z,0.00
2022-11-08T01:06:43.807Z,0.00
2022-11-08T01:07:43.865Z,0.00
2022-11-08T01:08:43.793Z,0.00
2022-11-08T01:09:43.771Z,0.00
2022-11-08T01:10:43.795Z,0.00
2022-11-08T01:11:43.735Z,0.00
2022-11-08T01:12:43.714Z,0.00
2022-11-08T01:13:43.703Z,0.00
2022-11-08T01:14:43.702Z,0.00
2022-11-08T01:15:43.749Z,0.00
2022-11-08T01:16:43.650Z,0.00
2022-11-08T01:17:43.653Z,0.00
2022-11-08T01:18:43.735Z,0.00
2022-11-08T01:19:43.617Z,0.00
2022-11-08T01:20:43.642Z,0.00
2022-11-08T01:21:43.579Z,0.00
2022-11-08T01:22:43.588Z,0.00
2022-11-08T01:23:43.555Z,0.00
2022-11-08T01:24:43.572Z,0.00
2022-11-08T01:25:43.549Z,0.00
2022-11-08T01:26:43.538Z,0.00
2022-11-08T01:27:43.493Z,0.00
2022-11-08T01:28:43.555Z,0.00
2022-11-08T01:29:43.515Z,0.00
2022-11-08T01:30:43.465Z,0.00
2022-11-08T01:31:43.460Z,0.00
2022-11-08T01:32:43.504Z,0.00
2022-11-08T01:33:48.422Z,0.00
2022-11-08T01:34:44.416Z,0.00
2022-11-08T01:35:43.414Z,0.00
2022-11-08T01:36:43.389Z,0.00
2022-11-08T01:37:43.369Z,0.00
2022-11-08T01:38:43.385Z,0.00
2022-11-08T01:39:43.339Z,0.00
2022-11-08T01:40:43.326Z,0.00
2022-11-08T01:41:43.299Z,0.00
2022-11-08T01:42:43.363Z,0.00
2022-11-08T01:43:50.803Z,0.00
2022-11-08T01:44:43.315Z,0.00
2022-11-08T01:45:43.247Z,0.00
2022-11-08T01:46:43.247Z,0.00
2022-11-08T01:47:43.241Z,0.00
2022-11-08T01:48:43.263Z,0.00
2022-11-08T01:49:43.189Z,0.00
2022-11-08T01:50:43.189Z,0.00
2022-11-08T01:51:43.163Z,0.00
2022-11-08T01:52:43.170Z,0.00
2022-11-08T01:53:43.152Z,0.00
2022-11-08T01:54:43.207Z,0.00
2022-11-08T01:55:43.109Z,0.00
2022-11-08T01:56:43.150Z,0.00
2022-11-08T01:57:43.084Z,0.00
2022-11-08T01:58:43.079Z,0.00
2022-11-08T01:59:43.087Z,0.00
2022-11-08T02:00:43.055Z,0.00
2022-11-08T02:01:43.192Z,0.00
2022-11-08T02:02:43.060Z,0.00
2022-11-08T02:03:43.013Z,0.00
2022-11-08T02:04:43.034Z,0.00
2022-11-08T02:05:42.987Z,0.00
2022-11-08T02:06:42.961Z,0.00
2022-11-08T02:07:42.949Z,0.00
2022-11-08T02:08:42.970Z,0.00
2022-11-08T02:09:42.954Z,0.00
2022-11-08T02:10:42.894Z,0.00
2022-11-08T02:11:42.909Z,0.00
2022-11-08T02:12:42.927Z,0.00
2022-11-08T02:13:42.878Z,0.00
2022-11-08T02:14:42.864Z,0.00
2022-11-08T02:15:42.913Z,0.00
2022-11-08T02:16:42.826Z,0.00
2022-11-08T02:17:42.803Z,0.00
2022-11-08T02:18:42.785Z,0.00
2022-11-08T02:19:42.794Z,0.00
2022-11-08T02:20:42.763Z,0.00
2022-11-08T02:21:42.769Z,0.00
2022-11-08T02:22:42.750Z,0.00
2022-11-08T02:23:42.808Z,0.00
2022-11-08T02:24:42.709Z,0.00
2022-11-08T02:25:42.746Z,0.00
2022-11-08T02:26:42.682Z,0.00
2022-11-08T02:27:42.698Z,0.00
2022-11-08T02:28:42.629Z,0.00
2022-11-08T02:29:42.643Z,0.00
2022-11-08T02:30:42.620Z,0.00
2022-11-08T02:31:42.644Z,0.00
2022-11-08T02:32:42.606Z,0.00
2022-11-08T02:33:42.606Z,0.00
2022-11-08T02:34:42.600Z,0.00
2022-11-08T02:35:42.603Z,0.00
2022-11-08T02:36:42.552Z,0.00
2022-11-08T02:37:42.557Z,0.00
2022-11-08T02:38:42.542Z,0.00
2022-11-08T02:39:42.491Z,0.00
2022-11-08T02:40:42.495Z,0.00
2022-11-08T02:41:42.461Z,0.00
2022-11-08T02:42:42.539Z,0.00
2022-11-08T02:43:42.443Z,0.00
2022-11-08T02:44:42.421Z,0.00
2022-11-08T02:45:42.446Z,0.00
2022-11-08T02:46:42.464Z,0.00
2022-11-08T02:47:42.375Z,0.00
2022-11-08T02:48:42.348Z,0.00
2022-11-08T02:49:42.394Z,0.00
2022-11-08T02:50:42.367Z,0.00
2022-11-08T02:51:42.410Z,0.00
2022-11-08T02:52:42.328Z,0.00
2022-11-08T02:53:42.301Z,0.00
2022-11-08T02:54:42.299Z,0.00
2022-11-08T02:55:42.287Z,0.00
2022-11-08T02:56:42.246Z,0.00
2022-11-08T02:57:42.257Z,0.00
2022-11-08T02:58:42.250Z,0.00
2022-11-08T02:59:42.252Z,0.00
2022-11-08T03:00:42.216Z,0.00
2022-11-08T03:01:42.266Z,0.00
2022-11-08T03:02:42.209Z,0.00
2022-11-08T03:03:42.172Z,0.00
2022-11-08T03:04:42.144Z,0.00
2022-11-08T03:05:42.116Z,0.00
2022-11-08T03:06:42.104Z,0.00
2022-11-08T03:07:42.116Z,0.00
2022-11-08T03:08:42.074Z,0.00
2022-11-08T03:09:42.095Z,0.00
2022-11-08T03:10:42.045Z,0.00
2022-11-08T03:11:42.056Z,0.00
2022-11-08T03:12:42.012Z,0.00
2022-11-08T03:13:42.013Z,0.00
2022-11-08T03:14:41.983Z,0.00
2022-11-08T03:15:42.097Z,0.00
2022-11-08T03:16:41.965Z,0.00
2022-11-08T03:17:41.958Z,0.00
2022-11-08T03:18:41.922Z,0.00
2022-11-08T03:19:41.911Z,0.00
2022-11-08T03:20:41.885Z,0.00
2022-11-08T03:21:41.932Z,0.00
2022-11-08T03:22:41.856Z,0.00
2022-11-08T03:23:41.874Z,0.00
2022-11-08T03:24:41.885Z,0.00
2022-11-08T03:25:41.843Z,0.00
2022-11-08T03:26:41.791Z,0.00
2022-11-08T03:27:41.796Z,0.00
2022-11-08T03:28:41.787Z,0.00
2022-11-08T03:29:41.779Z,0.00
2022-11-08T03:30:41.769Z,0.00
2022-11-08T03:31:41.760Z,0.00
2022-11-08T03:32:41.764Z,0.00
2022-11-08T03:33:41.718Z,0.00
2022-11-08T03:34:41.719Z,0.00
2022-11-08T03:35:42.638Z,0.00
2022-11-08T03:36:41.741Z,0.00
2022-11-08T03:37:41.691Z,0.00
2022-11-08T03:38:41.645Z,0.00
2022-11-08T03:39:41.627Z,0.00
2022-11-08T03:40:41.608Z,0.00
2022-11-08T03:41:41.592Z,0.00
2022-11-08T03:42:41.619Z,0.00
2022-11-08T03:43:41.597Z,0.00
2022-11-08T03:44:41.532Z,0.00
2022-11-08T03:45:41.560Z,0.00
2022-11-08T03:46:41.534Z,0.00
2022-11-08T03:47:41.541Z,0.00
2022-11-08T03:48:41.546Z,0.00
2022-11-08T03:49:41.518Z,0.00
2022-11-08T03:50:41.450Z,0.00
2022-11-08T03:51:41.452Z,0.00
2022-11-08T03:52:41.458Z,0.00
2022-11-08T03:53:41.454Z,0.00
2022-11-08T03:54:41.447Z,0.00
2022-11-08T03:55:41.412Z,0.00
2022-11-08T03:56:41.384Z,0.00
2022-11-08T03:57:41.387Z,0.00
2022-11-08T03:58:41.335Z,0.00
2022-11-08T03:59:41.334Z,0.00
2022-11-08T04:00:41.359Z,0.00
2022-11-08T04:01:41.433Z,0.00
2022-11-08T04:02:41.376Z,0.00
2022-11-08T04:03:41.310Z,0.00
2022-11-08T04:04:41.249Z,0.00
2022-11-08T04:05:41.290Z,0.00
2022-11-08T04:06:41.253Z,0.00
2022-11-08T04:07:41.243Z,0.00
2022-11-08T04:08:41.207Z,0.00
2022-11-08T04:09:41.178Z,0.00
2022-11-08T04:10:41.246Z,0.00
2022-11-08T04:11:41.189Z,0.00
2022-11-08T04:12:41.130Z,0.00
2022-11-08T04:13:41.133Z,0.00
2022-11-08T04:14:41.118Z,0.00
2022-11-08T04:15:41.107Z,0.00
2022-11-08T04:16:41.169Z,0.00
2022-11-08T04:17:41.080Z,0.00
2022-11-08T04:18:41.096Z,0.00
2022-11-08T04:19:41.029Z,0.00
2022-11-08T04:20:41.019Z,0.00
2022-11-08T04:21:41.028Z,0.00
2022-11-08T04:22:40.999Z,0.00
2022-11-08T04:23:40.990Z,0.00
2022-11-08T04:24:40.964Z,0.00
2022-11-08T04:25:40.959Z,0.00
2022-11-08T04:26:40.949Z,0.00
2022-11-08T04:27:40.915Z,0.00
2022-11-08T04:28:40.900Z,0.00
2022-11-08T04:29:40.905Z,0.00
2022-11-08T04:30:40.895Z,0.00
2022-11-08T04:31:40.871Z,0.00
2022-11-08T04:32:40.839Z,0.00
2022-11-08T04:33:40.860Z,0.00
2022-11-08T04:34:40.851Z,0.00
2022-11-08T04:35:40.802Z,0.00
2022-11-08T04:36:40.784Z,0.00
2022-11-08T04:37:40.774Z,0.00
2022-11-08T04:38:40.776Z,0.00
2022-11-08T04:39:40.787Z,0.00
2022-11-08T04:40:40.831Z,0.00
2022-11-08T04:41:40.745Z,0.00
2022-11-08T04:42:40.805Z,0.00
2022-11-08T04:43:40.683Z,0.00
2022-11-08T04:44:40.759Z,0.00
2022-11-08T04:45:40.673Z,0.00
2022-11-08T04:46:40.639Z,0.00
2022-11-08T04:47:45.701Z,0.00
2022-11-08T04:48:41.637Z,0.00
2022-11-08T04:49:40.605Z,0.00
2022-11-08T04:50:40.599Z,0.00
2022-11-08T04:51:40.606Z,0.00
2022-11-08T04:52:40.561Z,0.00
2022-11-08T04:53:40.553Z,0.00
2022-11-08T04:54:40.556Z,0.00
2022-11-08T04:55:40.533Z,0.00
2022-11-08T04:56:40.492Z,0.00
2022-11-08T04:57:40.484Z,0.00
2022-11-08T04:58:40.506Z,0.00
2022-11-08T04:59:40.435Z,0.00
2022-11-08T05:00:40.444Z,0.00
2022-11-08T05:01:40.658Z,0.00
2022-11-08T05:02:40.519Z,0.00
2022-11-08T05:03:40.438Z,0.00
2022-11-08T05:04:40.370Z,0.00
2022-11-08T05:05:40.373Z,0.00
2022-11-08T05:06:40.350Z,0.00
2022-11-08T05:07:40.358Z,0.00
2022-11-08T05:08:40.334Z,0.00
2022-11-08T05:09:40.289Z,0.00
2022-11-08T05:10:40.290Z,0.00
2022-11-08T05:11:40.289Z,0.00
2022-11-08T05:12:40.391Z,0.00
2022-11-08T05:13:47.931Z,0.00
2022-11-08T05:14:40.241Z,0.00
2022-11-08T05:15:40.202Z,0.00
2022-11-08T05:16:40.208Z,0.00
2022-11-08T05:17:40.173Z,0.00
2022-11-08T05:18:42.040Z,0.00
2022-11-08T05:19:40.181Z,0.00
2022-11-08T05:20:40.175Z,0.00
2022-11-08T05:21:40.143Z,0.00
2022-11-08T05:22:40.154Z,0.00
2022-11-08T05:23:40.105Z,0.00
2022-11-08T05:24:40.097Z,0.00
2022-11-08T05:25:40.091Z,0.00
2022-11-08T05:26:40.055Z,0.00
2022-11-08T05:27:40.049Z,0.00
2022-11-08T05:28:40.037Z,0.00
2022-11-08T05:29:42.379Z,0.00
2022-11-08T05:30:40.003Z,0.00
2022-11-08T05:31:39.989Z,0.00
2022-11-08T05:32:39.995Z,0.00
2022-11-08T05:33:39.960Z,0.00
2022-11-08T05:34:39.950Z,0.00
2022-11-08T05:35:39.927Z,0.00
2022-11-08T05:36:39.928Z,0.00
2022-11-08T05:37:39.898Z,0.00
2022-11-08T05:38:39.873Z,0.00
2022-11-08T05:39:39.880Z,0.00
2022-11-08T05:40:39.836Z,0.00
2022-11-08T05:41:39.862Z,0.00
2022-11-08T05:42:39.809Z,0.00
2022-11-08T05:43:39.795Z,0.00
2022-11-08T05:44:39.787Z,0.00
2022-11-08T05:45:39.800Z,0.00
2022-11-08T05:46:39.775Z,0.00
2022-11-08T05:47:39.767Z,0.00
2022-11-08T05:48:39.731Z,0.00
2022-11-08T05:49:39.711Z,0.00
2022-11-08T05:50:39.700Z,0.00
2022-11-08T05:51:39.699Z,0.00
2022-11-08T05:52:39.685Z,0.00
2022-11-08T05:53:39.698Z,0.00
2022-11-08T05:54:39.655Z,0.00
2022-11-08T05:55:39.642Z,0.00
2022-11-08T05:56:39.605Z,0.00
2022-11-08T05:57:39.627Z,0.00
2022-11-08T05:58:39.592Z,0.00
2022-11-08T05:59:39.589Z,0.00
2022-11-08T06:00:39.559Z,0.00
2022-11-08T06:01:39.624Z,0.00
2022-11-08T06:02:39.590Z,0.00
2022-11-08T06:03:39.584Z,0.00
2022-11-08T06:04:39.499Z,0.00
2022-11-08T06:05:39.497Z,0.00
2022-11-08T06:06:39.477Z,4.00
2022-11-08T06:07:39.447Z,0.00
2022-11-08T06:08:39.450Z,0.00
2022-11-08T06:09:39.433Z,4.00
2022-11-08T06:10:39.425Z,0.00
2022-11-08T06:11:39.419Z,4.00
2022-11-08T06:12:39.379Z,0.00
2022-11-08T06:13:39.364Z,4.00
2022-11-08T06:14:39.352Z,4.00
2022-11-08T06:15:39.340Z,4.00
2022-11-08T06:16:39.330Z,8.00
2022-11-08T06:17:39.319Z,8.00
2022-11-08T06:18:39.292Z,8.00
2022-11-08T06:19:39.271Z,12.00
2022-11-08T06:20:39.326Z,12.00
2022-11-08T06:21:39.252Z,12.00
2022-11-08T06:22:39.232Z,16.00
2022-11-08T06:23:39.234Z,16.00
2022-11-08T06:24:39.255Z,20.00
2022-11-08T06:25:39.202Z,24.00
2022-11-08T06:26:39.213Z,28.00
2022-11-08T06:27:39.153Z,28.00
2022-11-08T06:28:39.150Z,36.00
2022-11-08T06:29:39.120Z,40.00
2022-11-08T06:30:39.118Z,44.00
2022-11-08T06:31:42.854Z,52.00
2022-11-08T06:32:39.091Z,56.00
2022-11-08T06:33:39.060Z,64.00
2022-11-08T06:34:39.073Z,72.00
2022-11-08T06:35:39.032Z,76.00
2022-11-08T06:36:39.035Z,80.00
2022-11-08T06:37:39.005Z,92.00
2022-11-08T06:38:39.026Z,100.00
2022-11-08T06:39:38.983Z,108.00
2022-11-08T06:40:38.987Z,120.00
2022-11-08T06:41:38.953Z,128.00
2022-11-08T06:42:38.939Z,140.00
2022-11-08T06:43:38.925Z,152.00
2022-11-08T06:44:38.905Z,164.00
2022-11-08T06:45:38.891Z,176.00
2022-11-08T06:46:38.913Z,192.00
2022-11-08T06:47:39.521Z,208.00
2022-11-08T06:48:38.878Z,228.00
2022-11-08T06:49:38.876Z,248.00
2022-11-08T06:50:38.839Z,272.00
2022-11-08T06:51:38.810Z,296.00
2022-11-08T06:52:38.821Z,316.00
2022-11-08T06:53:38.826Z,340.00
2022-11-08T06:54:38.786Z,360.00
2022-11-08T06:55:38.773Z,380.00
2022-11-08T06:56:38.736Z,400.00
2022-11-08T06:57:38.738Z,420.00
2022-11-08T06:58:38.709Z,440.00
2022-11-08T06:59:38.720Z,456.00
2022-11-08T07:00:38.735Z,472.00
2022-11-08T07:01:43.270Z,488.00
2022-11-08T07:02:39.823Z,504.00
2022-11-08T07:03:38.660Z,524.00
2022-11-08T07:04:38.618Z,544.00
2022-11-08T07:05:38.613Z,568.00
2022-11-08T07:06:38.600Z,596.00
2022-11-08T07:07:38.598Z,620.00
2022-11-08T07:08:38.569Z,640.00
2022-11-08T07:09:38.564Z,684.00
2022-11-08T07:10:38.561Z,712.00
2022-11-08T07:11:38.561Z,752.00
2022-11-08T07:12:38.520Z,772.00
2022-11-08T07:13:38.523Z,796.00
2022-11-08T07:14:38.487Z,820.00
2022-11-08T07:15:38.469Z,844.00
2022-11-08T07:16:38.474Z,848.00
2022-11-08T07:17:38.948Z,856.00
2022-11-08T07:18:38.446Z,884.00
2022-11-08T07:19:38.402Z,892.00
2022-11-08T07:20:38.405Z,904.00
2022-11-08T07:21:38.395Z,972.00
2022-11-08T07:22:38.364Z,1028.00
2022-11-08T07:23:38.348Z,1036.00
2022-11-08T07:24:38.336Z,1080.00
2022-11-08T07:25:38.329Z,1104.00
2022-11-08T07:26:38.321Z,1084.00
2022-11-08T07:27:38.328Z,1168.00
2022-11-08T07:28:38.274Z,1160.00
2022-11-08T07:29:38.280Z,1184.00
2022-11-08T07:30:38.262Z,1220.00
2022-11-08T07:31:38.233Z,1224.00
2022-11-08T07:32:38.234Z,1232.00
2022-11-08T07:33:38.225Z,1268.00
2022-11-08T07:34:38.196Z,1264.00
2022-11-08T07:35:38.201Z,1288.00
2022-11-08T07:36:38.228Z,1292.00
2022-11-08T07:37:38.151Z,1296.00
2022-11-08T07:38:38.143Z,1320.00
2022-11-08T07:39:38.126Z,1348.00
2022-11-08T07:40:38.114Z,1356.00
2022-11-08T07:41:38.112Z,1376.00
2022-11-08T07:43:04.746Z,1392.00
2022-11-08T07:43:39.069Z,1440.00
2022-11-08T07:44:38.148Z,1472.00
2022-11-08T07:45:38.063Z,1528.00
2022-11-08T07:46:38.032Z,1572.00
2022-11-08T07:47:38.032Z,1568.00
2022-11-08T07:48:38.052Z,1612.00
2022-11-08T07:49:37.994Z,1660.00
2022-11-08T07:50:37.980Z,1644.00
2022-11-08T07:51:37.991Z,1652.00
2022-11-08T07:52:37.944Z,1656.00
2022-11-08T07:53:37.926Z,1668.00
2022-11-08T07:54:37.924Z,1728.00
2022-11-08T07:55:37.929Z,1768.00
2022-11-08T07:56:38.008Z,1784.00
2022-11-08T07:57:37.894Z,1892.00
2022-11-08T07:58:37.873Z,1896.00
2022-11-08T07:59:37.857Z,1924.00
2022-11-08T08:00:37.850Z,1944.00
2022-11-08T08:01:37.876Z,1984.00
2022-11-08T08:02:37.859Z,1972.00
2022-11-08T08:03:37.799Z,1940.00
2022-11-08T08:04:37.800Z,1972.00
2022-11-08T08:05:37.778Z,1944.00
2022-11-08T08:06:37.764Z,1912.00
2022-11-08T08:07:37.742Z,1932.00
2022-11-08T08:08:37.771Z,1920.00
2022-11-08T08:09:37.714Z,1868.00
2022-11-08T08:10:37.718Z,1896.00
2022-11-08T08:11:37.699Z,1884.00
2022-11-08T08:12:37.679Z,1860.00
2022-11-08T08:13:37.705Z,1884.00
2022-11-08T08:14:37.669Z,1896.00
2022-11-08T08:15:37.654Z,1876.00
2022-11-08T08:16:37.641Z,1872.00
2022-11-08T08:17:37.618Z,1856.00
2022-11-08T08:18:37.604Z,1884.00
2022-11-08T08:19:37.605Z,1920.00
2022-11-08T08:20:37.586Z,1908.00
2022-11-08T08:21:37.603Z,1932.00
2022-11-08T08:22:37.567Z,1896.00
2022-11-08T08:23:37.537Z,1876.00
2022-11-08T08:24:37.536Z,1832.00
2022-11-08T08:25:37.507Z,1816.00
2022-11-08T08:26:37.497Z,1820.00
2022-11-08T08:27:37.496Z,1824.00
2022-11-08T08:28:37.477Z,1820.00
2022-11-08T08:29:37.453Z,1888.00
2022-11-08T08:30:37.442Z,1932.00
2022-11-08T08:31:37.443Z,1988.00
2022-11-08T08:32:37.433Z,2020.00
2022-11-08T08:33:37.854Z,2040.00
2022-11-08T08:34:37.380Z,2072.00
2022-11-08T08:35:37.377Z,2108.00
2022-11-08T08:36:37.409Z,2120.00
2022-11-08T08:37:37.345Z,2164.00
2022-11-08T08:38:43.169Z,2160.00
2022-11-08T08:39:38.331Z,2196.00
2022-11-08T08:40:37.316Z,2192.00
2022-11-08T08:41:37.310Z,2196.00
2022-11-08T08:42:37.282Z,2172.00
2022-11-08T08:43:37.291Z,2200.00
2022-11-08T08:44:37.265Z,2260.00
2022-11-08T08:45:37.273Z,2276.00
2022-11-08T08:46:37.241Z,2304.00
2022-11-08T08:47:37.207Z,2332.00
2022-11-08T08:48:37.200Z,2352.00
2022-11-08T08:49:37.193Z,2368.00
2022-11-08T08:50:37.164Z,2392.00
2022-11-08T08:51:37.170Z,2428.00
2022-11-08T08:52:37.144Z,2464.00
2022-11-08T08:53:37.134Z,2512.00
2022-11-08T08:54:37.125Z,2500.00
2022-11-08T08:55:37.106Z,2504.00
2022-11-08T08:56:37.129Z,2504.00
2022-11-08T08:57:37.089Z,2548.00
2022-11-08T08:58:37.218Z,2632.00
2022-11-08T09:01:38.348Z,2804.00
2022-11-08T09:02:39.865Z,2824.00
2022-11-08T09:03:38.009Z,2844.00
2022-11-08T09:04:37.048Z,2812.00
2022-11-08T09:05:36.998Z,2800.00
2022-11-08T09:06:37.060Z,2752.00
2022-11-08T09:07:36.934Z,2724.00
2022-11-08T09:08:36.939Z,2716.00
2022-11-08T09:09:36.909Z,2704.00
2022-11-08T09:10:36.934Z,2784.00
2022-11-08T09:11:36.909Z,2816.00
2022-11-08T09:12:36.864Z,2812.00
2022-11-08T09:13:36.892Z,2824.00
2022-11-08T09:14:36.850Z,2856.00
2022-11-08T09:15:36.842Z,2836.00
2022-11-08T09:16:36.815Z,2832.00
2022-11-08T09:17:36.802Z,2784.00
2022-11-08T09:18:36.865Z,2752.00
2022-11-08T09:19:36.802Z,2760.00
2022-11-08T09:20:36.793Z,2768.00
2022-11-08T09:21:36.787Z,2724.00
2022-11-08T09:22:36.763Z,2692.00
2022-11-08T09:23:36.731Z,2552.00
2022-11-08T09:24:36.736Z,2436.00
2022-11-08T09:25:36.694Z,2376.00
2022-11-08T09:26:36.684Z,2400.00
2022-11-08T09:27:36.679Z,2292.00
2022-11-08T09:28:45.346Z,2232.00
2022-11-08T09:29:36.637Z,2240.00
2022-11-08T09:30:44.865Z,2256.00
2022-11-08T09:31:36.617Z,2264.00
2022-11-08T09:33:00.427Z,2300.00
2022-11-08T09:33:37.597Z,2360.00
2022-11-08T09:34:36.613Z,2436.00
2022-11-08T09:35:36.591Z,2484.00
2022-11-08T09:36:36.563Z,2576.00
2022-11-08T09:37:36.573Z,2656.00
2022-11-08T09:38:36.533Z,2696.00
2022-11-08T09:39:36.541Z,2696.00
2022-11-08T09:40:36.497Z,2756.00
2022-11-08T09:41:36.514Z,2792.00
2022-11-08T09:42:36.463Z,2840.00
2022-11-08T09:43:36.466Z,2884.00
2022-11-08T09:44:36.452Z,2916.00
2022-11-08T09:45:36.446Z,2940.00
2022-11-08T09:46:36.414Z,2988.00
2022-11-08T09:47:36.445Z,3024.00
2022-11-08T09:48:36.409Z,3052.00
2022-11-08T09:49:36.380Z,3124.00
2022-11-08T09:50:36.365Z,3188.00
2022-11-08T09:51:36.383Z,3248.00
2022-11-08T09:52:36.332Z,3288.00
2022-11-08T09:53:36.340Z,3300.00
2022-11-08T09:54:36.308Z,3320.00
2022-11-08T09:55:36.305Z,3320.00
2022-11-08T09:56:36.275Z,3276.00
2022-11-08T09:57:36.335Z,3228.00
2022-11-08T09:58:36.420Z,3196.00
2022-11-08T09:59:36.373Z,3140.00
2022-11-08T10:00:36.225Z,3076.00
2022-11-08T10:01:36.333Z,2992.00
2022-11-08T10:02:36.212Z,2940.00
2022-11-08T10:03:36.198Z,2916.00
2022-11-08T10:04:36.190Z,2912.00
2022-11-08T10:05:36.156Z,2916.00
2022-11-08T10:06:36.208Z,2924.00
2022-11-08T10:07:36.149Z,2928.00
2022-11-08T10:08:36.132Z,2956.00
2022-11-08T10:09:36.134Z,2952.00
2022-11-08T10:10:36.127Z,2948.00
2022-11-08T10:11:36.101Z,2964.00
2022-11-08T10:12:36.073Z,2968.00
2022-11-08T10:13:36.071Z,2976.00
2022-11-08T10:14:44.214Z,3012.00
2022-11-08T10:15:37.047Z,3040.00
2022-11-08T10:16:36.035Z,3064.00
2022-11-08T10:17:36.004Z,3056.00
2022-11-08T10:18:36.026Z,3044.00
2022-11-08T10:19:35.985Z,3064.00
2022-11-08T10:20:35.990Z,3068.00
2022-11-08T10:21:35.951Z,3076.00
2022-11-08T10:22:35.936Z,3084.00
2022-11-08T10:23:35.926Z,3096.00
2022-11-08T10:24:35.927Z,3088.00
2022-11-08T10:25:35.945Z,3084.00
2022-11-08T10:26:35.894Z,3112.00
2022-11-08T10:27:35.869Z,3120.00
2022-11-08T10:28:35.858Z,3156.00
2022-11-08T10:29:35.849Z,3168.00
2022-11-08T10:30:35.851Z,3160.00
2022-11-08T10:31:35.819Z,3192.00
2022-11-08T10:32:35.831Z,3208.00
2022-11-08T10:33:35.804Z,3212.00
2022-11-08T10:34:35.783Z,3212.00
2022-11-08T10:35:35.810Z,3220.00
2022-11-08T10:36:35.772Z,3228.00
2022-11-08T10:37:35.740Z,3260.00
2022-11-08T10:38:35.745Z,3264.00
2022-11-08T10:39:35.722Z,3296.00
2022-11-08T10:40:35.734Z,3360.00
2022-11-08T10:41:35.679Z,3412.00
2022-11-08T10:42:35.660Z,3444.00
2022-11-08T10:43:35.692Z,3504.00
2022-11-08T10:44:35.640Z,3556.00
2022-11-08T10:45:35.667Z,3592.00
2022-11-08T10:46:35.625Z,3628.00
2022-11-08T10:47:35.602Z,3640.00
2022-11-08T10:48:35.599Z,3592.00
2022-11-08T10:49:35.600Z,3556.00
2022-11-08T10:50:35.555Z,3492.00
2022-11-08T10:51:35.550Z,3372.00
2022-11-08T10:52:35.536Z,3276.00
2022-11-08T10:53:35.517Z,3220.00
2022-11-08T10:54:35.516Z,3256.00
2022-11-08T10:55:35.518Z,3228.00
2022-11-08T10:56:37.680Z,3208.00
2022-11-08T10:57:35.476Z,3220.00
2022-11-08T10:58:36.128Z,3204.00
2022-11-08T10:59:35.447Z,3208.00
2022-11-08T11:00:35.441Z,3196.00
2022-11-08T11:01:35.507Z,3188.00
2022-11-08T11:02:35.399Z,3248.00
2022-11-08T11:03:35.444Z,3256.00
2022-11-08T11:04:35.367Z,3284.00
2022-11-08T11:05:35.423Z,3268.00
2022-11-08T11:06:35.359Z,3288.00
2022-11-08T11:07:35.358Z,3328.00
2022-11-08T11:08:35.322Z,3324.00
2022-11-08T11:09:35.325Z,3352.00
2022-11-08T11:10:35.351Z,3420.00
2022-11-08T11:11:35.332Z,3420.00
2022-11-08T11:12:35.273Z,3448.00
2022-11-08T11:13:35.276Z,3424.00
2022-11-08T11:14:35.234Z,3400.00
2022-11-08T11:15:35.228Z,3336.00
2022-11-08T11:16:35.299Z,3332.00
2022-11-08T11:17:38.867Z,3304.00
2022-11-08T11:18:36.205Z,3292.00
2022-11-08T11:19:35.177Z,3352.00
2022-11-08T11:20:35.200Z,3416.00
2022-11-08T11:21:35.148Z,3392.00
2022-11-08T11:22:35.145Z,3404.00
2022-11-08T11:23:35.129Z,3432.00
2022-11-08T11:24:35.113Z,3632.00
2022-11-08T11:25:35.113Z,3844.00
2022-11-08T11:26:35.155Z,3840.00
2022-11-08T11:27:43.790Z,3852.00
2022-11-08T11:28:35.043Z,3868.00
2022-11-08T11:29:35.039Z,3888.00
2022-11-08T11:30:35.063Z,3880.00
2022-11-08T11:31:35.014Z,3924.00
2022-11-08T11:32:35.024Z,3888.00
2022-11-08T11:33:35.046Z,3812.00
2022-11-08T11:34:34.968Z,3796.00
2022-11-08T11:35:34.963Z,3756.00
2022-11-08T11:36:35.003Z,3740.00
2022-11-08T11:37:34.924Z,3672.00
2022-11-08T11:38:34.914Z,3680.00
2022-11-08T11:39:34.905Z,3728.00
2022-11-08T11:40:34.896Z,3828.00
2022-11-08T11:41:34.914Z,3872.00
2022-11-08T11:42:50.137Z,3936.00
2022-11-08T11:43:35.855Z,3964.00
2022-11-08T11:44:34.841Z,4060.00
2022-11-08T11:45:34.841Z,4140.00
2022-11-08T11:46:40.271Z,4240.00
2022-11-08T11:47:35.818Z,4124.00
2022-11-08T11:48:34.778Z,4148.00
2022-11-08T11:49:34.836Z,4240.00
2022-11-08T11:50:34.773Z,4392.00
2022-11-08T11:51:34.795Z,4356.00
2022-11-08T11:52:34.753Z,4176.00
2022-11-08T11:53:34.724Z,4008.00
2022-11-08T11:54:34.704Z,3676.00
2022-11-08T11:55:34.690Z,3556.00
2022-11-08T11:56:34.671Z,3516.00
2022-11-08T11:57:34.671Z,3512.00
2022-11-08T11:58:34.706Z,3496.00
2022-11-08T11:59:34.659Z,3556.00
2022-11-08T12:00:34.641Z,3552.00
2022-11-08T12:01:34.626Z,3576.00
2022-11-08T12:02:34.634Z,3472.00
2022-11-08T12:03:34.586Z,3344.00
2022-11-08T12:04:34.604Z,3184.00
2022-11-08T12:05:34.583Z,3176.00
2022-11-08T12:06:34.570Z,3156.00
2022-11-08T12:07:34.579Z,3196.00
2022-11-08T12:08:34.546Z,3176.00
2022-11-08T12:09:34.555Z,3172.00
2022-11-08T12:10:34.491Z,3180.00
2022-11-08T12:11:34.510Z,3192.00
2022-11-08T12:12:34.458Z,3200.00
2022-11-08T12:13:34.483Z,3268.00
2022-11-08T12:14:34.460Z,3252.00
2022-11-08T12:15:34.459Z,3328.00
2022-11-08T12:16:34.408Z,3640.00
2022-11-08T12:17:34.405Z,3888.00
2022-11-08T12:18:43.259Z,4300.00
2022-11-08T12:19:35.399Z,4580.00
2022-11-08T12:20:34.399Z,4684.00
2022-11-08T12:21:34.355Z,4532.00
2022-11-08T12:22:34.323Z,4372.00
2022-11-08T12:23:34.337Z,4272.00
2022-11-08T12:24:34.311Z,4000.00
2022-11-08T12:25:34.366Z,4016.00
2022-11-08T12:26:34.282Z,3916.00
2022-11-08T12:27:36.632Z,3996.00
2022-11-08T12:28:37.396Z,4108.00
2022-11-08T12:29:35.240Z,3704.00
2022-11-08T12:30:34.232Z,3780.00
2022-11-08T12:31:38.697Z,3664.00
2022-11-08T12:32:34.231Z,3428.00
2022-11-08T12:33:34.213Z,3356.00
2022-11-08T12:34:34.205Z,3432.00
2022-11-08T12:35:34.158Z,3464.00
2022-11-08T12:36:34.147Z,3576.00
2022-11-08T12:37:34.165Z,3172.00
2022-11-08T12:38:34.117Z,3028.00
2022-11-08T12:39:34.139Z,2940.00
2022-11-08T12:40:34.089Z,2932.00
2022-11-08T12:41:34.069Z,2988.00
2022-11-08T12:42:34.072Z,3032.00
2022-11-08T12:43:34.053Z,3080.00
2022-11-08T12:44:34.063Z,3056.00